Time;durP1;ratioP1;P1;durP2;ratioP2;P2;SDS_P1;SDS_P2;PMS_P1;PMS_P2;Temp;Humidity;BMP_temperature;BMP_pressure;BME280_temperature;BME280_humidity;BME280_pressure;Samples;Min_cycle;Max_cycle;Signal;HPM_P1;HPM_P2
2021/01/21 00:01:14;;;;;;;220.27;92.43;;;;;;;-2.10;87.12;98283.73;4446605;78;21113;-91
2021/01/21 00:07:15;;;;;;;300.93;118.67;;;;;;;-1.99;87.54;98278.34;4391436;79;21184;-91
2021/01/21 00:13:17;;;;;;;264.23;107.27;;;;;;;-2.11;87.12;98266.08;4427287;79;21669;-91
2021/01/21 00:19:19;;;;;;;245.30;102.73;;;;;;;-2.10;86.92;98259.60;4429389;79;21684;-92
2021/01/21 00:25:20;;;;;;;233.40;94.67;;;;;;;-2.16;87.04;98256.06;4427037;79;21172;-91
2021/01/21 00:31:22;;;;;;;228.47;93.67;;;;;;;-2.33;86.49;98254.62;4430106;79;21188;-91
2021/01/21 00:37:24;;;;;;;226.63;96.07;;;;;;;-2.37;87.13;98257.69;4427038;79;21609;-91
2021/01/21 00:43:25;;;;;;;233.07;96.83;;;;;;;-2.38;87.05;98256.12;4426275;79;21167;-92
2021/01/21 00:49:27;;;;;;;264.37;108.03;;;;;;;-2.54;86.70;98246.89;4428217;79;21180;-91
2021/01/21 00:55:28;;;;;;;268.23;116.73;;;;;;;-2.57;87.07;98251.53;4431436;79;21129;-90
2021/01/21 01:01:30;;;;;;;268.57;118.63;;;;;;;-2.57;87.31;98248.30;4427305;79;21737;-91
2021/01/21 01:07:34;;;;;;;225.20;95.60;;;;;;;-2.52;87.43;98240.68;4430368;79;21629;-91
2021/01/21 01:13:36;;;;;;;244.37;101.77;;;;;;;-2.58;86.84;98238.66;4426662;79;21160;-91
2021/01/21 01:19:45;;;;;;;;;;;;;;;-2.51;87.66;98224.30;4429240;80;21148;-91
2021/01/21 01:25:47;;;;;;;240.03;97.27;;;;;;;-2.65;86.48;98220.12;4430379;79;20413;-92
2021/01/21 01:31:51;;;;;;;261.80;107.40;;;;;;;-2.62;87.34;98230.22;4429761;80;21152;-92
2021/01/21 01:37:53;;;;;;;266.20;115.50;;;;;;;-2.79;86.76;98218.08;4430614;80;21124;-92
2021/01/21 01:44:01;;;;;;;256.83;108.40;;;;;;;-2.85;86.85;98212.03;4431876;80;21161;-92
2021/01/21 01:50:04;;;;;;;255.40;110.33;;;;;;;-2.86;86.48;98203.77;4398011;80;21590;-92
2021/01/21 01:56:07;;;;;;;234.83;98.67;;;;;;;-2.86;87.07;98204.31;4431968;79;21149;-92
2021/01/21 02:02:21;;;;;;;234.90;97.03;;;;;;;-2.69;87.34;98203.09;4390297;79;23428;-92
2021/01/21 02:08:29;;;;;;;236.07;103.67;;;;;;;-2.76;87.23;98211.56;4326730;81;21201;-91
2021/01/21 02:14:49;;;;;;;;;;;;;;;-2.85;86.23;98206.68;4340406;81;21159;-92
2021/01/21 02:21:34;;;;;;;257.10;106.97;;;;;;;-2.91;86.17;98207.14;4339796;81;20166;-92
2021/01/21 02:28:09;;;;;;;256.80;106.65;;;;;;;-3.14;85.84;98208.23;4337589;81;21599;-92
2021/01/21 02:34:25;;;;;;;254.30;102.20;;;;;;;-3.24;86.46;98206.59;4340781;81;21165;-92
2021/01/21 02:40:28;;;;;;;238.97;102.57;;;;;;;-3.10;86.99;98203.30;4326710;81;21141;-91
2021/01/21 02:46:50;;;;;;;232.00;96.40;;;;;;;-3.29;85.81;98200.81;4343640;80;21182;-92
2021/01/21 02:59:17;;;;;;;199.93;81.40;;;;;;;-3.50;86.18;98197.59;4532216;77;22617;-93
2021/01/21 03:05:29;;;;;;;192.33;83.43;;;;;;;-3.61;86.60;98197.03;4461008;78;21578;-92
2021/01/21 03:11:32;;;;;;;195.13;78.63;;;;;;;-3.68;87.17;98201.22;4488842;78;21567;-92
2021/01/21 03:17:35;;;;;;;180.20;77.83;;;;;;;-3.70;86.20;98200.19;4480296;78;21690;-92
2021/01/21 03:23:48;;;;;;;226.90;84.70;;;;;;;-3.75;86.56;98200.30;4488697;78;21157;-92
2021/01/21 03:29:51;;;;;;;218.60;80.47;;;;;;;-3.72;86.15;98202.91;4498564;78;21164;-91
2021/01/21 03:35:55;;;;;;;199.10;83.37;;;;;;;-3.83;86.22;98206.36;4475777;78;21137;-92
2021/01/21 03:41:58;;;;;;;212.43;83.70;;;;;;;-3.95;86.35;98216.78;4484811;78;21142;-92
2021/01/21 03:48:01;;;;;;;205.33;78.13;;;;;;;-3.90;86.98;98213.98;4482470;78;21193;-92
2021/01/21 03:54:05;;;;;;;201.43;86.67;;;;;;;-3.74;86.55;98208.55;4493181;78;21690;-92
2021/01/21 04:00:08;;;;;;;204.97;81.93;;;;;;;-4.04;86.28;98200.41;4502341;78;21164;-92
2021/01/21 04:06:12;;;;;;;207.30;81.60;;;;;;;-4.22;85.59;98209.33;4504453;78;21760;-92
2021/01/21 04:12:14;;;;;;;217.20;87.30;;;;;;;-4.41;86.39;98204.09;4476583;78;21159;-92
2021/01/21 04:18:15;;;;;;;212.27;89.70;;;;;;;-4.37;87.15;98199.72;4497415;78;21180;-91
2021/01/21 04:24:36;;;;;;;203.73;82.23;;;;;;;-4.31;86.76;98195.09;4518818;77;22972;-91
2021/01/21 04:30:39;;;;;;;212.30;80.67;;;;;;;-4.37;86.10;98182.35;4495058;78;21139;-91
2021/01/21 04:36:41;;;;;;;193.97;73.27;;;;;;;-4.51;86.28;98182.91;4480471;78;21142;-91
2021/01/21 04:42:44;;;;;;;212.63;85.23;;;;;;;-4.50;86.45;98181.03;4483605;78;21181;-92
2021/01/21 04:48:47;;;;;;;196.87;75.47;;;;;;;-4.58;86.49;98175.84;4497622;78;21140;-92
2021/01/21 04:54:55;;;;;;;194.53;80.60;;;;;;;-4.76;85.68;98185.28;4486126;78;21145;-91
2021/01/21 05:01:02;;;;;;;194.20;82.43;;;;;;;-4.85;86.97;98179.28;4488050;78;21160;-91
2021/01/21 05:07:05;;;;;;;211.70;82.37;;;;;;;-4.73;86.61;98174.81;4488114;78;21193;-92
2021/01/21 05:13:07;;;;;;;173.63;71.13;;;;;;;-4.59;87.07;98177.48;4502866;78;21160;-92
2021/01/21 05:19:33;;;;;;;176.27;73.23;;;;;;;-4.66;86.47;98178.40;4580913;76;22936;-91
2021/01/21 05:25:48;;;;;;;;;;;;;;;-4.76;86.14;98177.27;4465138;78;21144;-92
2021/01/21 05:32:06;;;;;;;168.37;69.27;;;;;;;-4.78;87.11;98181.58;4422098;78;20282;-92
2021/01/21 05:38:09;;;;;;;188.70;74.60;;;;;;;-4.76;86.15;98188.72;4489510;78;21144;-91
2021/01/21 05:44:40;;;;;;;179.33;86.20;;;;;;;-4.70;86.31;98186.77;4353045;79;28314;-91
2021/01/21 05:50:53;;;;;;;192.63;83.57;;;;;;;-4.54;86.40;98185.40;4322223;80;21204;-92
2021/01/21 05:56:59;;;;;;;189.13;82.90;;;;;;;-4.38;86.59;98190.67;4324201;81;21853;-91
2021/01/21 06:03:01;;;;;;;146.57;56.87;;;;;;;-4.49;85.71;98186.64;4316600;80;21138;-92
2021/01/21 06:09:28;;;;;;;188.73;77.20;;;;;;;-4.53;86.71;98189.64;4532234;77;22983;-92
2021/01/21 06:15:30;;;;;;;182.17;72.97;;;;;;;-4.72;85.94;98195.61;4480402;78;21146;-92
2021/01/21 06:21:35;;;;;;;224.93;92.70;;;;;;;-5.06;85.88;98208.74;4491078;78;21147;-92
2021/01/21 06:27:42;;;;;;;162.47;68.80;;;;;;;-5.07;86.37;98197.03;4479996;78;21151;-92
2021/01/21 06:33:44;;;;;;;188.80;75.73;;;;;;;-5.18;85.53;98187.08;4479443;78;21121;-92
2021/01/21 06:40:03;;;;;;;178.73;72.70;;;;;;;-5.27;86.35;98194.17;4476188;78;21193;-91
2021/01/21 06:46:11;;;;;;;209.00;85.97;;;;;;;-5.11;86.89;98209.38;4485281;78;21137;-92
2021/01/21 06:52:14;;;;;;;205.00;85.13;;;;;;;-5.12;86.02;98206.48;4471101;78;21133;-92
2021/01/21 06:58:49;;;;;;;209.27;86.37;;;;;;;-5.09;86.21;98207.99;4486526;78;21592;-91
2021/01/21 07:05:07;;;;;;;186.23;75.13;;;;;;;-5.07;86.14;98195.69;4475709;78;21169;-92
2021/01/21 07:11:11;;;;;;;202.40;77.23;;;;;;;-5.13;85.87;98203.01;4484246;78;21414;-93
2021/01/21 07:24:12;;;;;;;221.43;93.40;;;;;;;-5.00;85.92;98208.13;4470354;79;21824;-92
2021/01/21 07:30:26;;;;;;;206.13;82.70;;;;;;;-4.89;86.78;98214.31;4482850;78;21560;-92
2021/01/21 07:36:29;;;;;;;208.80;88.30;;;;;;;-4.85;86.35;98217.20;4483227;78;21145;-92
2021/01/21 07:42:40;;;;;;;206.90;88.07;;;;;;;-4.86;86.77;98214.28;4483706;79;21512;-92
2021/01/21 07:48:41;;;;;;;213.30;88.10;;;;;;;-4.48;87.21;98213.06;4474527;79;21139;-92
2021/01/21 07:54:48;;;;;;;231.57;97.40;;;;;;;-4.24;86.77;98198.93;4469981;80;21154;-92
2021/01/21 08:00:53;;;;;;;217.23;100.93;;;;;;;-3.73;87.51;98200.77;4469004;80;21608;-91
2021/01/21 08:06:57;;;;;;;209.07;98.75;;;;;;;-3.02;87.85;98199.89;4472066;79;21846;-92
2021/01/21 08:13:02;;;;;;;202.70;101.10;;;;;;;-2.76;86.42;98204.06;4476502;79;21119;-92
2021/01/21 08:19:05;;;;;;;230.07;107.80;;;;;;;-2.39;86.95;98204.93;4524931;78;21160;-92
2021/01/21 08:25:07;;;;;;;237.43;114.47;;;;;;;-2.05;86.51;98188.40;4557801;78;21161;-92
2021/01/21 08:31:09;;;;;;;252.17;118.87;;;;;;;-1.66;86.91;98184.84;4557197;78;21121;-92
2021/01/21 08:37:11;;;;;;;218.23;110.30;;;;;;;-1.09;86.99;98170.66;4557988;78;21669;-93
2021/01/21 08:43:13;;;;;;;247.13;124.50;;;;;;;-0.55;87.30;98168.55;4557474;78;21121;-93
2021/01/21 08:49:14;;;;;;;219.77;111.10;;;;;;;0.34;87.50;98173.03;4556882;78;21157;-92
2021/01/21 08:55:16;;;;;;;226.23;110.57;;;;;;;0.70;85.72;98172.42;4557081;78;21429;-92
2021/01/21 09:01:17;;;;;;;247.75;123.13;;;;;;;1.04;85.97;98170.75;4556859;78;21149;-93
2021/01/21 09:07:23;;;;;;;211.77;91.90;;;;;;;1.53;86.18;98171.09;4552655;78;21133;-94
2021/01/21 09:13:25;;;;;;;177.20;73.65;;;;;;;1.87;85.38;98163.11;4522661;78;21139;-92
2021/01/21 09:19:32;;;;;;;113.50;55.60;;;;;;;2.31;85.48;98145.41;4469600;80;21564;-92
2021/01/21 09:25:34;;;;;;;113.15;57.03;;;;;;;2.73;85.20;98145.84;4468575;80;21170;-93
2021/01/21 09:31:36;;;;;;;107.50;54.03;;;;;;;2.94;84.85;98153.95;4468687;80;21186;-92
2021/01/21 09:37:48;;;;;;;102.17;52.70;;;;;;;3.37;84.34;98148.34;4468379;80;21162;-92
2021/01/21 09:43:50;;;;;;;92.35;48.52;;;;;;;3.82;84.16;98145.98;4468834;80;21561;-93
2021/01/21 09:49:51;;;;;;;98.58;49.48;;;;;;;4.14;83.79;98135.31;4469157;78;21596;-91
2021/01/21 09:55:55;;;;;;;102.55;50.35;;;;;;;4.47;83.05;98144.58;4486241;78;21166;-91
2021/01/21 10:01:56;;;;;;;91.65;48.87;;;;;;;4.92;82.50;98139.86;4472723;78;21184;-92
2021/01/21 10:07:58;;;;;;;123.07;65.10;;;;;;;5.58;83.82;98138.16;4505715;78;21578;-91
2021/01/21 10:14:01;;;;;;;136.30;72.80;;;;;;;6.32;82.82;98141.49;4477570;78;21141;-91
2021/01/21 10:20:04;;;;;;;146.93;77.27;;;;;;;6.60;80.21;98135.64;4481642;78;21586;-93
2021/01/21 10:26:06;;;;;;;177.72;96.15;;;;;;;6.95;81.26;98126.56;4470754;78;21285;-92
2021/01/21 10:32:08;;;;;;;166.00;88.67;;;;;;;6.97;79.00;98129.11;4466165;79;21137;-92
2021/01/21 10:38:09;;;;;;;170.57;89.55;;;;;;;7.36;79.68;98115.92;4511570;78;21184;-92
2021/01/21 10:44:11;;;;;;;163.35;88.92;;;;;;;7.01;78.28;98112.26;4528765;78;21133;-92
2021/01/21 10:50:13;;;;;;;166.80;88.82;;;;;;;7.19;78.43;98110.49;4477048;78;21605;-92
2021/01/21 10:56:16;;;;;;;153.57;80.28;;;;;;;7.33;78.48;98090.81;4463235;79;21142;-94
2021/01/21 11:02:18;;;;;;;168.75;80.83;;;;;;;6.97;77.23;98092.97;4462886;80;21167;-93
2021/01/21 11:08:19;;;;;;;132.63;68.20;;;;;;;6.45;76.87;98090.40;4470443;79;21170;-95
2021/01/21 11:14:21;;;;;;;126.95;67.42;;;;;;;6.45;77.26;98082.24;4476295;79;21159;-94
2021/01/21 11:20:23;;;;;;;133.70;68.67;;;;;;;6.87;77.77;98067.22;4476801;79;21135;-94
2021/01/21 11:26:24;;;;;;;124.25;66.07;;;;;;;7.12;76.73;98072.91;4476451;79;21316;-93
2021/01/21 11:32:26;;;;;;;114.47;61.18;;;;;;;7.04;76.18;98066.61;4476217;79;21159;-93
2021/01/21 11:38:27;;;;;;;115.97;60.35;;;;;;;7.12;75.89;98068.25;4451392;79;21186;-94
2021/01/21 11:44:29;;;;;;;124.15;63.00;;;;;;;6.89;75.94;98044.48;4476071;79;21190;-94
2021/01/21 11:50:31;;;;;;;112.08;57.08;;;;;;;6.77;74.96;98040.66;4475969;79;21127;-93
2021/01/21 11:56:33;;;;;;;136.25;68.70;;;;;;;6.44;75.03;98045.34;4476180;79;22082;-94
2021/01/21 12:02:35;;;;;;;151.25;77.03;;;;;;;6.40;75.18;98048.02;4476078;79;21584;-93
2021/01/21 12:08:36;;;;;;;165.25;85.20;;;;;;;6.32;75.13;98046.36;4471279;79;21178;-93
2021/01/21 12:14:38;;;;;;;163.75;79.50;;;;;;;5.97;74.45;98038.52;4468367;80;21162;-95
2021/01/21 12:20:40;;;;;;;159.10;79.80;;;;;;;5.84;74.40;98032.33;4468447;80;21663;-92
2021/01/21 12:26:41;;;;;;;145.75;70.50;;;;;;;5.70;74.62;98039.64;4468716;80;21587;-93
2021/01/21 12:32:43;;;;;;;134.05;68.33;;;;;;;5.46;74.84;98044.14;4468641;80;21147;-93
2021/01/21 12:38:45;;;;;;;130.78;65.47;;;;;;;5.51;75.03;98039.73;4467992;80;21122;-93
2021/01/21 12:44:46;;;;;;;136.97;68.55;;;;;;;5.58;74.95;98043.13;4468191;80;21604;-92
2021/01/21 12:50:48;;;;;;;119.08;60.85;;;;;;;5.62;74.76;98033.13;4468728;80;21163;-92
2021/01/21 12:56:50;;;;;;;104.53;52.98;;;;;;;5.80;74.89;98026.02;4468287;80;21150;-92
2021/01/21 13:02:52;;;;;;;104.72;50.58;;;;;;;5.80;74.44;98014.59;4472078;80;21148;-94
2021/01/21 13:08:54;;;;;;;97.47;46.58;;;;;;;5.84;74.49;98021.46;4448662;79;21147;-92
2021/01/21 13:14:57;;;;;;;104.92;53.68;;;;;;;5.87;74.15;98026.16;4481986;79;21138;-93
2021/01/21 13:21:00;;;;;;;90.97;45.83;;;;;;;5.94;73.51;98016.73;4481511;79;21162;-92
2021/01/21 13:27:05;;;;;;;80.85;41.45;;;;;;;6.02;73.71;98024.63;4481323;79;21193;-91
2021/01/21 13:33:07;;;;;;;77.20;38.13;;;;;;;5.80;73.44;98032.80;4481475;79;21567;-91
2021/01/21 13:39:09;;;;;;;77.97;40.23;;;;;;;5.78;73.42;98040.55;4480352;79;21177;-92
2021/01/21 13:45:11;;;;;;;87.60;42.48;;;;;;;5.63;73.00;98044.98;4478804;79;21615;-91
2021/01/21 13:51:13;;;;;;;87.60;41.25;;;;;;;5.74;73.40;98055.99;4480200;79;21174;-92
2021/01/21 13:57:15;;;;;;;85.67;42.38;;;;;;;5.57;73.40;98051.88;4456046;79;21158;-91
2021/01/21 14:03:17;;;;;;;103.80;44.50;;;;;;;5.55;72.82;98060.16;4457538;79;21170;-91
2021/01/21 14:09:19;;;;;;;91.20;38.13;;;;;;;5.43;73.11;98059.80;4411529;79;21142;-90
2021/01/21 14:15:20;;;;;;;78.45;35.08;;;;;;;5.36;73.46;98056.16;4423377;80;21158;-89
2021/01/21 14:21:22;;;;;;;63.90;24.77;;;;;;;5.22;73.39;98055.92;4455888;80;21173;-89
2021/01/21 14:27:23;;;;;;;64.45;25.60;;;;;;;5.10;73.42;98060.97;4396458;80;21185;-90
2021/01/21 14:33:26;;;;;;;59.65;22.30;;;;;;;5.00;73.54;98060.77;4434988;78;21281;-89
2021/01/21 14:39:27;;;;;;;53.87;20.32;;;;;;;4.78;73.61;98067.17;4435637;80;21180;-87
2021/01/21 14:45:29;;;;;;;55.10;26.12;;;;;;;4.58;73.74;98070.25;4431825;78;21169;-88
2021/01/21 14:51:31;;;;;;;34.63;17.15;;;;;;;4.33;73.83;98073.83;4467764;80;21133;-93
2021/01/21 14:57:32;;;;;;;38.25;17.17;;;;;;;4.10;74.06;98066.75;4468501;80;21129;-91
2021/01/21 15:03:34;;;;;;;36.30;16.93;;;;;;;3.85;74.29;98070.27;4441895;80;21181;-90
2021/01/21 15:09:36;;;;;;;37.17;16.15;;;;;;;3.64;74.57;98068.98;4429929;80;21141;-91
2021/01/21 15:15:38;;;;;;;43.87;18.82;;;;;;;3.39;74.61;98070.31;4449539;80;21154;-92
2021/01/21 15:21:39;;;;;;;35.35;17.05;;;;;;;3.14;74.87;98074.56;4449869;80;21610;-91
2021/01/21 15:27:41;;;;;;;37.17;17.80;;;;;;;3.01;75.17;98081.16;4456131;79;21151;-90
2021/01/21 15:33:42;;;;;;;50.33;24.07;;;;;;;2.80;75.29;98086.00;4463943;80;21146;-90
2021/01/21 15:39:44;;;;;;;67.92;28.60;;;;;;;2.54;75.31;98095.14;4463774;80;21155;-89
2021/01/21 15:45:46;;;;;;;59.38;25.65;;;;;;;2.28;75.49;98096.69;4453551;80;21197;-91
2021/01/21 15:51:47;;;;;;;65.15;28.70;;;;;;;2.09;75.95;98093.26;4433752;80;21158;-91
2021/01/21 15:57:49;;;;;;;91.92;37.93;;;;;;;1.95;76.28;98090.69;4451418;78;21163;-91
2021/01/21 16:03:50;;;;;;;76.72;32.85;;;;;;;1.77;76.30;98086.68;4439833;80;21441;-91
2021/01/21 16:09:52;;;;;;;107.97;44.27;;;;;;;1.60;76.58;98093.08;4460367;80;21355;-91
2021/01/21 16:15:54;;;;;;;136.50;54.27;;;;;;;1.49;77.04;98086.56;4470525;79;21171;-92
2021/01/21 16:21:55;;;;;;;160.03;63.98;;;;;;;1.43;77.25;98086.02;4470627;80;21158;-92
2021/01/21 16:27:57;;;;;;;139.90;58.38;;;;;;;1.24;77.45;98083.62;4477691;79;21145;-92
2021/01/21 16:33:59;;;;;;;146.47;59.13;;;;;;;1.24;77.45;98083.62;4476211;78;21152;-92
2021/01/21 16:40:00;;;;;;;86.72;38.08;;;;;;;1.05;77.34;98079.36;4472563;78;21160;-93
2021/01/21 16:46:04;;;;;;;60.65;25.48;;;;;;;0.51;77.70;98063.05;4480144;78;21143;-92
2021/01/21 16:52:05;;;;;;;88.30;36.63;;;;;;;0.51;77.70;98063.05;4480817;79;21161;-92
2021/01/21 16:58:07;;;;;;;87.82;37.80;;;;;;;0.52;77.75;98084.84;4473702;79;21150;-91
2021/01/21 17:04:09;;;;;;;97.85;41.45;;;;;;;0.44;78.23;98089.73;4476599;79;21562;-91
2021/01/21 17:10:12;;;;;;;87.85;39.25;;;;;;;0.39;78.26;98085.34;4475817;79;21222;-91
2021/01/21 17:16:14;;;;;;;143.62;54.67;;;;;;;0.39;78.26;98085.34;4511357;78;21166;-91
2021/01/21 17:22:16;;;;;;;84.60;34.10;;;;;;;-0.08;78.14;98088.78;4486573;78;21149;-91
2021/01/21 17:28:17;;;;;;;127.30;49.77;;;;;;;-0.08;78.14;98088.78;4482303;78;21595;-92
2021/01/21 17:34:19;;;;;;;122.60;50.13;;;;;;;-0.19;78.91;98082.78;4500503;78;22035;-92
2021/01/21 17:47:28;;;;;;;64.20;28.30;;;;;;;-0.33;79.21;98072.25;4433889;78;21102;-92
2021/01/21 17:53:41;;;;;;;85.10;35.57;;;;;;;-0.36;79.59;98074.83;4412125;79;21149;-92
2021/01/21 18:07:10;;;;;;;125.20;53.20;;;;;;;-0.55;79.81;98083.87;4142317;82;10000248;-90
2021/01/21 18:13:11;;;;;;;130.32;54.30;;;;;;;-0.67;79.85;98092.61;4252792;82;21753;-89
2021/01/21 18:19:25;;;;;;;115.05;50.03;;;;;;;-0.67;79.85;98092.61;4246287;82;21180;-92
2021/01/21 18:36:48;;;;;;;136.00;55.60;;;;;;;-0.83;80.83;98085.42;4552653;75;22758;-93
2021/01/21 18:54:04;;;;;;;128.13;58.27;;;;;;;-0.90;80.98;98087.81;4377907;77;22307;-93
2021/01/21 19:00:20;;;;;;;122.17;55.20;;;;;;;-0.96;81.04;98078.36;4270001;78;21226;-91
2021/01/21 19:06:31;;;;;;;128.17;57.20;;;;;;;-1.06;80.83;98078.15;4259449;81;21355;-92
2021/01/21 19:13:12;;;;;;;151.53;71.57;;;;;;;-1.07;80.80;98079.27;4532839;77;22984;-92
2021/01/21 19:20:08;;;;;;;146.77;64.20;;;;;;;-1.22;81.41;98082.45;4380897;78;21874;-92
2021/01/21 19:33:32;;;;;;;169.33;77.53;;;;;;;-1.00;81.80;98075.52;4435986;78;23046;-92
2021/01/21 19:39:51;;;;;;;133.70;58.53;;;;;;;-1.03;81.53;98072.13;4341225;81;21180;-92
2021/01/21 19:46:39;;;;;;;122.97;53.33;;;;;;;-1.08;81.44;98067.50;4322344;80;21181;-92
2021/01/21 20:26:29;;;;;;;;;;;;;;;;;;;;;
2021/01/21 20:32:54;;;;;;;113.47;49.13;;;;;;;-1.51;81.98;98046.68;4374125;80;21171;-93
2021/01/21 20:39:13;;;;;;;95.90;42.17;;;;;;;-1.59;81.63;98049.63;4314821;80;21173;-91
2021/01/21 20:56:11;;;;;;;129.97;55.20;;;;;;;-1.70;82.11;98044.35;4464186;78;22966;-92
2021/01/21 21:02:13;;;;;;;108.10;47.30;;;;;;;-1.78;82.53;98037.89;4477344;78;21226;-93
2021/01/21 21:08:15;;;;;;;90.40;39.50;;;;;;;-1.88;82.02;98036.87;4483022;77;21172;-93
2021/01/21 21:14:18;;;;;;;105.67;45.83;;;;;;;-1.86;82.04;98049.96;4396408;79;21138;-92
2021/01/21 21:20:20;;;;;;;93.27;43.57;;;;;;;-1.87;82.39;98056.45;4401459;78;21161;-93
2021/01/21 21:26:21;;;;;;;122.57;56.80;;;;;;;-1.87;82.61;98059.92;4397139;78;21169;-93
2021/01/21 21:32:23;;;;;;;123.13;53.23;;;;;;;-1.90;82.31;98062.45;4396353;80;21162;-93
2021/01/21 21:38:24;;;;;;;94.90;43.33;;;;;;;-2.06;82.08;98061.33;4403428;80;21256;-92
2021/01/21 21:44:26;;;;;;;162.00;70.33;;;;;;;-2.20;82.43;98061.50;4428088;80;21468;-92
2021/01/21 21:50:28;;;;;;;106.43;49.63;;;;;;;-2.29;82.85;98051.32;4418303;80;21168;-92
2021/01/21 21:56:29;;;;;;;181.03;77.83;;;;;;;-2.30;83.06;98051.64;4396231;78;21147;-92
2021/01/21 22:02:31;;;;;;;138.53;60.50;;;;;;;-2.28;83.29;98046.19;4383649;80;21180;-92
2021/01/21 22:08:33;;;;;;;101.97;45.03;;;;;;;-2.28;83.22;98036.80;4393215;80;21110;-92
2021/01/21 22:14:35;;;;;;;80.07;37.17;;;;;;;-2.34;82.93;98043.97;4392615;79;21595;-92
2021/01/21 22:20:36;;;;;;;97.23;41.33;;;;;;;-2.37;83.11;98057.45;4398264;79;21676;-93
2021/01/21 22:26:37;;;;;;;104.27;44.53;;;;;;;-2.37;82.84;98036.56;4396429;78;21137;-92
2021/01/21 22:32:39;;;;;;;116.83;50.70;;;;;;;-2.39;83.33;98037.41;4400893;79;21178;-93
2021/01/21 22:38:42;;;;;;;93.53;40.73;;;;;;;-2.42;83.00;98024.64;4421630;79;21189;-92
2021/01/21 22:44:44;;;;;;;95.83;43.03;;;;;;;-2.46;82.64;98026.39;4384148;79;21191;-92
2021/01/21 22:50:45;;;;;;;162.47;66.03;;;;;;;-2.61;82.76;98028.95;4380092;78;21186;-93
2021/01/21 22:56:47;;;;;;;116.87;50.83;;;;;;;-2.63;83.15;98019.66;4409931;79;21174;-93
2021/01/21 23:02:49;;;;;;;111.73;46.30;;;;;;;-2.72;83.17;98003.56;4392232;78;21138;-93
2021/01/21 23:08:50;;;;;;;110.43;48.53;;;;;;;-2.96;82.65;98002.41;4410639;80;21194;-92
2021/01/21 23:14:52;;;;;;;119.23;52.17;;;;;;;-2.99;83.12;97993.09;4415407;80;21159;-92
2021/01/21 23:20:53;;;;;;;101.83;47.13;;;;;;;-2.95;83.71;97982.02;4397765;79;21171;-92
2021/01/21 23:26:55;;;;;;;139.77;54.20;;;;;;;-2.88;83.98;97968.17;4395611;80;21177;-93
2021/01/21 23:32:56;;;;;;;140.20;55.00;;;;;;;-2.91;83.24;97959.43;4387481;79;21167;-93
2021/01/21 23:38:58;;;;;;;150.40;59.03;;;;;;;-3.03;83.38;97947.97;4412432;80;21172;-92
2021/01/21 23:45:00;;;;;;;135.93;56.57;;;;;;;-3.02;84.10;97939.40;4371844;80;21179;-93
2021/01/21 23:51:01;;;;;;;131.83;50.07;;;;;;;-2.93;84.24;97941.53;4409334;80;21151;-91
2021/01/21 23:57:03;;;;;;;145.17;55.63;;;;;;;-2.95;83.82;97927.66;4395254;79;21620;-92
